Wadsworth, Ohio
Current Conditions -  °F | °C
As of 3:13 AM on Tuesday 21 Oct 2014 (Local Time) from KBJJ Reporting Station
Haze Haze  
Wind Chill: 53°   Ceiling: 800
Heat Index: 53°   Visibility: 3mi
Dew Point: 50°   Wind: 5mph
Humidity: 89%   Direction: 260°W
Pressure: 29.85"   Gusts: NA
Location:  41.02°N, 81.73°W
Report Text: KBJJ 210713Z AUTO 26004KT 3SM BR OVC008 12/10 A2985 RMK AO2 CIG 007V011 T01170100 TSNO
Loading
Personal Weather Stations






























Interactive Weather Map
Tropical Storm Tracking
New forecast layout! Learn more

10-Day Weather Forecast

Advertisements
Track Severe Weather on mobile